createdAt,value
2018-07-11T00:01:53.836Z,70.53
2018-07-11T00:04:24.251Z,73.29
2018-07-11T00:06:54.231Z,73.10
2018-07-11T00:09:24.204Z,72.09
2018-07-11T00:11:54.249Z,72.95
2018-07-11T00:14:24.140Z,73.67
2018-07-11T00:16:59.303Z,72.80
2018-07-11T00:19:29.331Z,73.08
2018-07-11T00:21:59.472Z,72.10
2018-07-11T00:24:29.596Z,72.88
2018-07-11T00:26:59.712Z,71.79
2018-07-11T00:29:29.872Z,71.43
2018-07-11T00:31:59.947Z,71.14
2018-07-11T00:34:30.196Z,70.57
2018-07-11T00:37:00.355Z,70.74
2018-07-11T00:39:30.463Z,70.75
2018-07-11T00:42:00.515Z,71.12
2018-07-11T00:44:30.611Z,71.23
2018-07-11T00:47:00.708Z,71.08
2018-07-11T00:49:30.761Z,71.14
2018-07-11T00:52:00.939Z,71.02
2018-07-11T00:54:31.024Z,71.42
2018-07-11T00:57:01.644Z,71.44
2018-07-11T00:59:32.949Z,71.04
2018-07-11T01:02:05.509Z,71.26
2018-07-11T01:04:35.888Z,71.05
2018-07-11T01:07:07.390Z,71.73
2018-07-11T01:09:45.838Z,72.45
2018-07-11T01:12:15.895Z,72.15
2018-07-11T01:14:46.487Z,72.01
2018-07-11T01:17:21.530Z,72.04
2018-07-11T01:19:52.132Z,72.23
2018-07-11T01:22:22.273Z,72.26
2018-07-11T01:24:52.279Z,71.96
2018-07-11T01:27:22.228Z,71.84
2018-07-11T01:29:52.249Z,71.93
2018-07-11T01:32:22.182Z,71.20
2018-07-11T01:34:52.069Z,71.27
2018-07-11T01:37:22.059Z,71.46
2018-07-11T01:39:52.124Z,70.84
2018-07-11T01:42:22.074Z,71.04
2018-07-11T01:44:52.120Z,71.24
2018-07-11T01:47:22.023Z,71.73
2018-07-11T01:49:52.071Z,71.60
2018-07-11T01:52:32.936Z,71.65
2018-07-11T01:55:02.923Z,71.81
2018-07-11T01:57:32.847Z,71.51
2018-07-11T02:00:02.880Z,71.23
2018-07-11T02:02:33.045Z,71.39
2018-07-11T02:05:03.075Z,71.50
2018-07-11T02:07:33.218Z,74.39
2018-07-11T02:10:03.227Z,74.66
2018-07-11T02:12:33.295Z,73.04
2018-07-11T02:15:06.252Z,72.30
2018-07-11T02:17:37.927Z,71.44
2018-07-11T02:20:12.095Z,71.07
2018-07-11T02:22:42.264Z,70.97
2018-07-11T02:25:13.868Z,70.71
2018-07-11T02:27:43.939Z,71.15
2018-07-11T02:30:15.348Z,71.02
2018-07-11T02:32:45.443Z,71.34
2018-07-11T02:35:15.608Z,71.19
2018-07-11T02:37:45.436Z,71.37
2018-07-11T02:40:15.291Z,73.37
2018-07-11T02:42:45.248Z,70.97
2018-07-11T02:45:15.437Z,69.17
2018-07-11T02:47:45.411Z,67.07
2018-07-11T02:50:15.384Z,65.62
2018-07-11T02:52:45.365Z,65.01
2018-07-11T02:55:15.388Z,64.74
2018-07-11T02:57:45.459Z,62.87
2018-07-11T03:00:15.390Z,63.57
2018-07-11T03:02:45.532Z,64.80
2018-07-11T03:05:15.709Z,66.18
2018-07-11T03:07:45.736Z,66.36
2018-07-11T03:10:15.861Z,66.88
2018-07-11T03:12:46.724Z,66.82
2018-07-11T03:15:16.676Z,67.19
2018-07-11T03:17:46.812Z,66.95
2018-07-11T03:20:18.540Z,68.12
2018-07-11T03:22:53.727Z,68.38
2018-07-11T03:25:26.680Z,68.68
2018-07-11T03:27:57.200Z,68.84
2018-07-11T03:30:27.191Z,69.01
2018-07-11T03:32:57.276Z,69.21
2018-07-11T03:35:27.263Z,69.36
2018-07-11T03:37:57.204Z,69.62
2018-07-11T03:40:27.047Z,69.97
2018-07-11T03:42:56.951Z,70.60
2018-07-11T03:45:27.071Z,70.09
2018-07-11T03:47:57.027Z,70.01
2018-07-11T03:50:27.002Z,70.39
2018-07-11T03:52:56.891Z,70.92
2018-07-11T03:55:26.816Z,70.70
2018-07-11T03:57:56.678Z,70.61
2018-07-11T04:00:26.823Z,71.21
2018-07-11T04:02:57.131Z,71.26
2018-07-11T04:05:27.050Z,71.40
2018-07-11T04:07:57.060Z,71.50
2018-07-11T04:10:27.057Z,73.05
2018-07-11T04:12:59.667Z,72.40
2018-07-11T04:15:29.575Z,72.44
2018-07-11T04:17:59.547Z,72.28
2018-07-11T04:20:29.471Z,72.13
2018-07-11T04:22:59.313Z,72.30
2018-07-11T04:25:29.651Z,72.42
2018-07-11T04:27:59.832Z,72.16
2018-07-11T04:30:30.058Z,71.97
2018-07-11T04:33:00.013Z,71.64
2018-07-11T04:35:30.007Z,71.52
2018-07-11T04:38:00.061Z,71.19
2018-07-11T04:40:30.116Z,70.78
2018-07-11T04:43:00.510Z,71.27
2018-07-11T04:45:30.375Z,71.45
2018-07-11T04:48:00.469Z,71.14
2018-07-11T04:50:30.568Z,71.35
2018-07-11T04:53:03.287Z,71.05
2018-07-11T04:55:33.385Z,71.26
2018-07-11T04:58:03.275Z,70.97
2018-07-11T05:00:33.133Z,70.87
2018-07-11T05:03:03.255Z,70.94
2018-07-11T05:05:33.154Z,70.64
2018-07-11T05:08:02.983Z,70.64
2018-07-11T05:10:32.934Z,71.10
2018-07-11T05:13:02.796Z,70.78
2018-07-11T05:15:32.793Z,70.39
2018-07-11T05:18:02.653Z,69.91
2018-07-11T05:20:32.747Z,70.17
2018-07-11T05:23:02.803Z,69.80
2018-07-11T05:25:34.125Z,69.36
2018-07-11T05:28:04.145Z,68.67
2018-07-11T05:30:34.297Z,67.22
2018-07-11T05:33:04.197Z,66.88
2018-07-11T05:35:34.127Z,65.76
2018-07-11T05:38:04.152Z,65.58
2018-07-11T05:40:34.003Z,64.94
2018-07-11T05:43:03.944Z,63.90
2018-07-11T05:45:33.815Z,63.42
2018-07-11T05:48:03.682Z,62.80
2018-07-11T05:50:33.621Z,61.83
2018-07-11T05:53:03.585Z,62.33
2018-07-11T05:55:33.406Z,61.99
2018-07-11T05:58:03.540Z,61.38
2018-07-11T06:00:33.457Z,61.42
2018-07-11T06:03:03.473Z,61.41
2018-07-11T06:05:34.302Z,62.32
2018-07-11T06:08:04.444Z,62.45
2018-07-11T06:10:34.559Z,62.07
2018-07-11T06:13:04.584Z,62.81
2018-07-11T06:15:34.491Z,62.85
2018-07-11T06:18:04.391Z,62.44
2018-07-11T06:20:34.266Z,61.98
2018-07-11T06:23:04.282Z,62.46
2018-07-11T06:25:36.281Z,63.40
2018-07-11T06:28:06.341Z,64.42
2018-07-11T06:30:36.244Z,63.76
2018-07-11T06:33:06.297Z,63.55
2018-07-11T06:35:39.575Z,62.84
2018-07-11T06:38:09.435Z,63.17
2018-07-11T06:40:39.356Z,62.47
2018-07-11T06:43:09.300Z,64.13
2018-07-11T06:45:39.157Z,62.43
2018-07-11T06:48:09.089Z,62.51
2018-07-11T06:50:39.068Z,62.51
2018-07-11T06:53:09.028Z,63.63
2018-07-11T06:55:39.002Z,64.16
2018-07-11T06:58:09.028Z,64.89
2018-07-11T07:00:39.014Z,64.89
2018-07-11T07:03:08.883Z,66.26
2018-07-11T07:05:38.719Z,65.12
2018-07-11T07:08:08.861Z,65.00
2018-07-11T07:10:38.870Z,64.92
2018-07-11T07:13:08.757Z,64.18
2018-07-11T07:15:38.699Z,63.54
2018-07-11T07:18:08.673Z,62.95
2018-07-11T07:20:38.535Z,62.95
2018-07-11T07:23:08.426Z,63.96
2018-07-11T07:25:38.364Z,62.94
2018-07-11T07:28:08.412Z,63.17
2018-07-11T07:30:38.396Z,62.19
2018-07-11T07:33:08.384Z,62.80
2018-07-11T07:35:38.287Z,61.12
2018-07-11T07:38:08.164Z,61.71
2018-07-11T07:40:37.990Z,63.26
2018-07-11T07:43:07.875Z,63.75
2018-07-11T07:45:37.894Z,62.78
2018-07-11T07:48:07.911Z,62.71
2018-07-11T07:50:37.892Z,61.66
2018-07-11T07:53:08.802Z,61.66
2018-07-11T07:55:38.819Z,62.23
2018-07-11T07:58:08.831Z,61.94
2018-07-11T08:00:38.799Z,63.73
2018-07-11T08:03:08.781Z,61.90
2018-07-11T08:05:38.785Z,60.67
2018-07-11T08:08:08.735Z,59.88
2018-07-11T08:10:38.643Z,61.36
2018-07-11T08:13:08.635Z,60.13
2018-07-11T08:15:38.494Z,60.11
2018-07-11T08:18:08.412Z,58.89
2018-07-11T08:20:38.311Z,58.29
2018-07-11T08:23:20.509Z,58.01
2018-07-11T08:26:02.649Z,58.71
2018-07-11T08:28:40.406Z,58.43
2018-07-11T08:31:50.764Z,58.50
2018-07-11T08:34:31.387Z,58.75
2018-07-11T08:37:14.037Z,57.73
2018-07-11T08:40:43.384Z,57.86
2018-07-11T08:45:34.716Z,56.99
2018-07-11T08:50:19.071Z,56.76
2018-07-11T08:53:00.648Z,58.39
2018-07-11T08:55:41.456Z,57.67
2018-07-11T09:02:34.907Z,59.12
2018-07-11T09:06:14.287Z,59.11
2018-07-11T09:08:59.592Z,58.02
2018-07-11T09:12:43.144Z,58.79
2018-07-11T09:17:28.632Z,58.31
2018-07-11T09:20:15.590Z,56.94
2018-07-11T09:23:00.038Z,56.61
2018-07-11T09:25:29.975Z,56.60
2018-07-11T09:27:59.920Z,55.21
2018-07-11T09:30:29.819Z,55.01
2018-07-11T09:32:59.789Z,55.14
2018-07-11T09:35:29.924Z,55.49
2018-07-11T09:38:00.048Z,53.73
2018-07-11T09:40:30.109Z,53.21
2018-07-11T09:43:00.239Z,53.57
2018-07-11T09:45:30.279Z,53.78
2018-07-11T09:48:00.279Z,53.64
2018-07-11T09:50:30.295Z,52.98
2018-07-11T09:53:00.320Z,52.92
2018-07-11T09:55:30.402Z,52.43
2018-07-11T09:58:00.403Z,52.51
2018-07-11T10:00:35.619Z,52.24
2018-07-11T10:03:06.036Z,52.59
2018-07-11T10:05:35.980Z,51.79
2018-07-11T10:08:09.601Z,51.47
2018-07-11T10:10:39.495Z,50.93
2018-07-11T10:13:09.544Z,51.55
2018-07-11T10:15:39.486Z,50.97
2018-07-11T10:18:09.438Z,50.93
2018-07-11T10:20:39.444Z,51.76
2018-07-11T10:23:09.283Z,53.23
2018-07-11T10:25:39.381Z,52.05
2018-07-11T10:28:20.296Z,52.41
2018-07-11T10:30:50.764Z,51.21
2018-07-11T10:33:20.697Z,52.27
2018-07-11T10:35:50.549Z,51.64
2018-07-11T10:38:20.495Z,51.67
2018-07-11T10:40:50.442Z,53.40
2018-07-11T10:43:20.508Z,53.09
2018-07-11T10:45:50.491Z,51.45
2018-07-11T10:48:20.557Z,51.67
2018-07-11T10:50:50.565Z,52.10
2018-07-11T10:53:20.537Z,50.88
2018-07-11T10:55:50.440Z,49.58
2018-07-11T10:58:20.720Z,51.68
2018-07-11T11:01:05.024Z,50.04
2018-07-11T11:03:33.500Z,50.59
2018-07-11T11:06:03.507Z,51.43
2018-07-11T11:08:33.359Z,48.72
2018-07-11T11:11:03.347Z,48.44
2018-07-11T11:13:33.130Z,49.42
2018-07-11T11:16:03.085Z,49.15
2018-07-11T11:18:33.179Z,49.23
2018-07-11T11:21:03.139Z,49.92
2018-07-11T11:23:32.915Z,47.59
2018-07-11T11:26:02.754Z,48.74
2018-07-11T11:28:32.781Z,49.45
2018-07-11T11:31:02.647Z,48.35
2018-07-11T11:33:32.496Z,49.81
2018-07-11T11:36:02.351Z,50.22
2018-07-11T11:38:32.256Z,49.47
2018-07-11T11:41:02.069Z,48.33
2018-07-11T11:43:31.979Z,49.74
2018-07-11T11:46:01.972Z,48.60
2018-07-11T11:48:31.868Z,48.29
2018-07-11T11:51:01.743Z,48.32
2018-07-11T11:53:31.844Z,48.73
2018-07-11T11:56:01.715Z,48.66
2018-07-11T11:58:31.855Z,48.01
2018-07-11T12:01:01.750Z,48.45
2018-07-11T12:03:31.776Z,48.33
2018-07-11T12:06:01.787Z,48.32
2018-07-11T12:08:51.821Z,48.64
2018-07-11T12:11:21.760Z,48.31
2018-07-11T12:13:51.862Z,48.82
2018-07-11T12:16:21.707Z,48.22
2018-07-11T12:18:51.559Z,48.83
2018-07-11T12:21:21.580Z,47.74
2018-07-11T12:23:51.611Z,47.18
2018-07-11T12:26:21.663Z,48.06
2018-07-11T12:28:51.668Z,48.62
2018-07-11T12:31:21.594Z,46.79
2018-07-11T12:33:51.656Z,46.44
2018-07-11T12:36:21.638Z,48.00
2018-07-11T12:38:55.160Z,48.84
2018-07-11T12:41:25.320Z,47.64
2018-07-11T12:43:55.231Z,49.29
2018-07-11T12:46:25.459Z,47.55
2018-07-11T12:49:00.574Z,47.75
2018-07-11T12:51:30.712Z,46.39
2018-07-11T12:54:00.979Z,46.94
2018-07-11T12:56:30.979Z,47.77
2018-07-11T12:59:01.030Z,48.11
2018-07-11T13:01:31.034Z,47.77
2018-07-11T13:04:01.128Z,46.60
2018-07-11T13:06:31.244Z,45.90
2018-07-11T13:09:01.200Z,45.26
2018-07-11T13:11:31.180Z,46.30
2018-07-11T13:14:01.072Z,46.35
2018-07-11T13:16:31.042Z,46.11
2018-07-11T13:19:00.961Z,46.42
2018-07-11T13:21:30.924Z,46.53
2018-07-11T13:24:00.928Z,46.36
2018-07-11T13:26:30.755Z,46.92
2018-07-11T13:29:00.715Z,45.68
2018-07-11T13:31:30.818Z,45.16
2018-07-11T13:34:07.345Z,46.47
2018-07-11T13:36:37.250Z,45.89
2018-07-11T13:39:15.436Z,46.15
2018-07-11T13:41:45.894Z,44.91
2018-07-11T13:44:15.791Z,42.69
2018-07-11T13:46:45.962Z,43.28
2018-07-11T13:49:15.899Z,42.45
2018-07-11T13:51:45.895Z,42.49
2018-07-11T13:54:15.780Z,42.15
2018-07-11T13:56:46.639Z,41.89
2018-07-11T13:59:17.177Z,40.85
2018-07-11T14:01:47.057Z,41.08
2018-07-11T14:04:17.194Z,40.73
2018-07-11T14:06:47.252Z,39.41
2018-07-11T14:09:17.204Z,42.66
2018-07-11T14:11:47.127Z,41.02
2018-07-11T14:14:17.136Z,41.91
2018-07-11T14:16:47.110Z,40.75
2018-07-11T14:19:17.295Z,40.86
2018-07-11T14:21:47.164Z,41.51
2018-07-11T14:24:17.153Z,42.36
2018-07-11T14:26:47.344Z,42.00
2018-07-11T14:29:17.249Z,42.28
2018-07-11T14:31:47.294Z,42.82
2018-07-11T14:34:17.331Z,43.18
2018-07-11T14:36:47.172Z,43.82
2018-07-11T14:39:17.186Z,44.14
2018-07-11T14:41:47.075Z,44.17
2018-07-11T14:44:17.540Z,44.30
2018-07-11T14:46:47.415Z,44.49
2018-07-11T14:49:17.876Z,42.86
2018-07-11T14:51:47.903Z,43.68
2018-07-11T14:54:17.971Z,43.55
2018-07-11T14:56:48.231Z,42.94
2018-07-11T14:59:18.299Z,44.02
2018-07-11T15:01:48.326Z,44.54
2018-07-11T15:04:18.143Z,44.83
2018-07-11T15:06:48.033Z,48.41
2018-07-11T15:09:18.314Z,48.81
2018-07-11T15:11:48.091Z,48.47
2018-07-11T15:14:18.116Z,47.77
2018-07-11T15:16:48.287Z,48.51
2018-07-11T15:19:18.685Z,49.46
2018-07-11T15:21:48.779Z,49.88
2018-07-11T15:24:18.668Z,50.77
2018-07-11T15:26:48.679Z,50.06
2018-07-11T15:29:19.170Z,50.13
2018-07-11T15:31:49.597Z,50.03
2018-07-11T15:34:19.411Z,50.14
2018-07-11T15:36:49.500Z,50.45
2018-07-11T15:39:19.463Z,48.42
2018-07-11T15:41:49.534Z,48.92
2018-07-11T15:44:19.490Z,49.63
2018-07-11T15:46:49.579Z,49.18
2018-07-11T15:49:19.824Z,49.15
2018-07-11T15:51:50.569Z,49.02
2018-07-11T15:54:20.648Z,50.08
2018-07-11T15:56:50.694Z,48.85
2018-07-11T15:59:20.997Z,49.55
2018-07-11T16:01:55.089Z,49.96
2018-07-11T16:04:35.200Z,49.86
2018-07-11T16:07:06.846Z,50.56
2018-07-11T16:09:59.034Z,50.58
2018-07-11T16:12:28.882Z,50.44
2018-07-11T16:14:58.856Z,50.29
2018-07-11T16:17:28.820Z,50.20
2018-07-11T16:19:58.856Z,50.60
2018-07-11T16:22:28.979Z,51.35
2018-07-11T16:24:58.972Z,50.90
2018-07-11T16:27:28.927Z,50.57
2018-07-11T16:29:58.807Z,50.67
2018-07-11T16:32:28.665Z,50.11
2018-07-11T16:34:58.706Z,50.70
2018-07-11T16:37:28.655Z,51.39
2018-07-11T16:39:58.644Z,51.49
2018-07-11T16:42:28.562Z,51.68
2018-07-11T16:44:58.437Z,50.81
2018-07-11T16:47:28.841Z,51.22
2018-07-11T16:49:58.880Z,50.76
2018-07-11T16:52:29.311Z,50.98
2018-07-11T16:54:59.568Z,51.51
2018-07-11T16:57:37.273Z,51.51
2018-07-11T17:00:09.354Z,51.95
2018-07-11T17:02:41.435Z,51.58
2018-07-11T17:05:12.215Z,51.11
2018-07-11T17:07:50.213Z,51.82
2018-07-11T17:10:22.748Z,52.06
2018-07-11T17:12:58.126Z,51.26
2018-07-11T17:15:30.506Z,51.29
2018-07-11T17:18:00.543Z,51.63
2018-07-11T17:20:30.573Z,52.71
2018-07-11T17:23:06.884Z,52.70
2018-07-11T17:25:41.824Z,52.15
2018-07-11T17:28:11.837Z,53.17
2018-07-11T17:30:43.943Z,52.73
2018-07-11T17:33:14.606Z,53.65
2018-07-11T17:35:50.191Z,53.70
2018-07-11T17:38:25.962Z,52.98
2018-07-11T17:41:11.280Z,54.57
2018-07-11T17:43:41.319Z,54.03
2018-07-11T17:46:11.348Z,53.88
2018-07-11T17:49:45.433Z,54.40
2018-07-11T17:52:15.491Z,54.98
2018-07-11T17:55:08.678Z,54.89
2018-07-11T17:58:10.556Z,55.79
2018-07-11T18:00:46.300Z,56.16
2018-07-11T18:03:36.316Z,55.63
2018-07-11T18:06:16.883Z,56.04
2018-07-11T18:09:09.682Z,55.98
2018-07-11T18:11:53.928Z,55.90
2018-07-11T18:14:37.649Z,56.82
2018-07-11T18:17:12.227Z,56.16
2018-07-11T18:19:53.962Z,56.85
2018-07-11T18:22:41.758Z,57.00
2018-07-11T18:25:22.370Z,57.36
2018-07-11T18:30:10.548Z,57.13
2018-07-11T18:32:53.803Z,57.23
2018-07-11T18:35:35.234Z,57.81
2018-07-11T18:38:13.928Z,56.83
2018-07-11T18:41:28.894Z,57.52
2018-07-11T18:44:06.665Z,58.12
2018-07-11T18:46:55.458Z,58.00
2018-07-11T18:49:49.184Z,58.88
2018-07-11T18:52:33.412Z,58.49
2018-07-11T19:01:18.569Z,58.78
2018-07-11T19:04:05.419Z,59.49
2018-07-11T19:06:47.703Z,59.66
2018-07-11T19:10:26.824Z,60.40
2018-07-11T19:12:59.768Z,60.07
2018-07-11T19:15:47.564Z,61.27
2018-07-11T19:18:29.041Z,62.01
2018-07-11T19:21:11.680Z,61.76
2018-07-11T19:23:58.881Z,61.87
2018-07-11T19:27:05.388Z,62.83
2018-07-11T19:29:44.252Z,62.71
2018-07-11T19:32:32.187Z,63.24
2018-07-11T19:37:45.516Z,63.27
2018-07-11T19:40:56.464Z,64.03
2018-07-11T19:43:48.605Z,64.36
2018-07-11T19:46:45.776Z,64.18
2018-07-11T19:49:31.872Z,64.28
2018-07-11T19:54:22.480Z,64.79
2018-07-11T19:56:52.524Z,65.12
2018-07-11T19:59:22.426Z,65.36
2018-07-11T20:01:52.487Z,65.58
2018-07-11T20:04:22.400Z,65.73
2018-07-11T20:06:52.379Z,65.85
2018-07-11T20:09:22.640Z,65.39
2018-07-11T20:11:52.603Z,65.88
2018-07-11T20:14:22.615Z,65.17
2018-07-11T20:16:52.632Z,66.08
2018-07-11T20:19:22.646Z,65.81
2018-07-11T20:21:52.706Z,65.50
2018-07-11T20:24:23.090Z,66.09
2018-07-11T20:26:53.174Z,66.77
2018-07-11T20:29:23.188Z,66.79
2018-07-11T20:31:53.120Z,66.31
2018-07-11T20:34:23.100Z,66.78
2018-07-11T20:36:53.145Z,67.22
2018-07-11T20:39:23.171Z,66.94
2018-07-11T20:41:53.165Z,67.42
2018-07-11T20:44:23.048Z,68.21
2018-07-11T20:46:53.088Z,67.94
2018-07-11T20:49:28.566Z,67.87
2018-07-11T20:51:58.574Z,67.39
2018-07-11T20:54:28.460Z,66.99
2018-07-11T20:56:58.541Z,67.13
2018-07-11T20:59:39.450Z,66.76
2018-07-11T21:02:20.377Z,66.87
2018-07-11T21:05:17.503Z,66.45
2018-07-11T21:07:58.374Z,66.07
2018-07-11T21:11:41.740Z,66.00
2018-07-11T21:16:27.663Z,67.42
2018-07-11T21:19:04.556Z,66.72
2018-07-11T21:21:35.267Z,67.30
2018-07-11T21:24:06.124Z,67.25
2018-07-11T21:26:36.433Z,66.88
2018-07-11T21:29:06.412Z,67.33
2018-07-11T21:31:36.478Z,66.83
2018-07-11T21:34:06.359Z,67.61
2018-07-11T21:36:36.255Z,67.17
2018-07-11T21:39:06.784Z,67.45
2018-07-11T21:41:36.796Z,67.03
2018-07-11T21:44:07.171Z,67.86
2018-07-11T21:46:37.131Z,67.54
2018-07-11T21:49:07.100Z,67.38
2018-07-11T21:51:36.971Z,67.35
2018-07-11T21:54:06.843Z,67.80
2018-07-11T21:56:36.776Z,68.04
2018-07-11T21:59:06.704Z,68.19
2018-07-11T22:01:36.825Z,66.96
2018-07-11T22:04:06.664Z,68.03
2018-07-11T22:06:36.696Z,67.47
2018-07-11T22:09:07.164Z,67.70
2018-07-11T22:11:37.235Z,67.95
2018-07-11T22:14:07.342Z,67.75
2018-07-11T22:16:37.288Z,67.69
2018-07-11T22:19:07.199Z,67.64
2018-07-11T22:21:35.584Z,67.69
2018-07-11T22:24:03.677Z,68.50
2018-07-11T22:26:31.711Z,67.89
2018-07-11T22:28:59.971Z,67.60
2018-07-11T22:31:28.108Z,68.18
2018-07-11T22:33:56.249Z,67.87
2018-07-11T22:36:24.362Z,67.82
2018-07-11T22:38:52.528Z,68.19
2018-07-11T22:41:20.660Z,67.95
2018-07-11T22:43:48.798Z,68.18
2018-07-11T22:46:17.006Z,68.61
2018-07-11T22:48:45.168Z,67.97
2018-07-11T22:51:13.227Z,68.07
2018-07-11T22:53:41.481Z,68.58
2018-07-11T22:56:09.531Z,68.89
2018-07-11T22:58:37.711Z,68.68
2018-07-11T23:01:05.880Z,69.34
2018-07-11T23:03:34.040Z,69.31
2018-07-11T23:06:02.084Z,70.45
2018-07-11T23:08:30.115Z,70.31
2018-07-11T23:10:58.233Z,70.35
2018-07-11T23:13:26.296Z,70.41
2018-07-11T23:15:54.436Z,69.85
2018-07-11T23:18:22.616Z,70.24
2018-07-11T23:20:50.767Z,70.46
2018-07-11T23:23:18.936Z,70.22
2018-07-11T23:25:47.152Z,69.84
2018-07-11T23:28:15.327Z,69.73
2018-07-11T23:30:43.488Z,69.38
2018-07-11T23:33:11.568Z,70.25
2018-07-11T23:35:39.760Z,70.24
2018-07-11T23:38:07.974Z,70.83
2018-07-11T23:40:36.089Z,70.03
2018-07-11T23:43:04.128Z,69.88
2018-07-11T23:45:32.201Z,70.28
2018-07-11T23:48:00.380Z,69.86
2018-07-11T23:50:28.576Z,70.68
2018-07-11T23:52:56.708Z,70.34
2018-07-11T23:55:24.942Z,70.25
2018-07-11T23:57:53.003Z,70.24
